createdAt,value
2022-12-09T00:01:24.172Z,20.45
2022-12-09T00:05:27.359Z,21.02
2022-12-09T00:09:30.415Z,18.58
2022-12-09T00:13:34.775Z,23.35
2022-12-09T00:17:37.704Z,20.90
2022-12-09T00:21:41.343Z,25.17
2022-12-09T00:25:44.168Z,22.15
2022-12-09T00:29:48.573Z,21.05
2022-12-09T00:33:52.221Z,19.33
2022-12-09T00:37:55.219Z,19.23
2022-12-09T00:41:58.012Z,20.42
2022-12-09T00:46:02.424Z,17.30
2022-12-09T00:50:06.823Z,15.20
2022-12-09T00:54:10.374Z,16.85
2022-12-09T00:58:13.958Z,18.00
2022-12-09T01:02:18.394Z,16.50
2022-12-09T01:06:24.625Z,17.05
2022-12-09T01:10:27.548Z,15.77
2022-12-09T01:14:30.549Z,15.88
2022-12-09T01:18:34.728Z,17.27
2022-12-09T01:22:37.969Z,15.20
2022-12-09T01:26:41.011Z,15.77
2022-12-09T01:30:44.180Z,15.15
2022-12-09T01:34:49.483Z,14.80
2022-12-09T01:38:53.261Z,15.77
2022-12-09T01:42:56.514Z,14.90
2022-12-09T01:47:00.857Z,19.60
2022-12-09T01:51:09.625Z,18.55
2022-12-09T01:55:13.491Z,15.63
2022-12-09T01:59:17.133Z,19.27
2022-12-09T02:03:20.670Z,17.75
2022-12-09T02:07:25.160Z,15.38
2022-12-09T02:11:38.709Z,17.17
2022-12-09T02:15:46.165Z,16.60
2022-12-09T02:20:01.484Z,18.27
2022-12-09T02:24:13.593Z,19.13
2022-12-09T02:34:14.742Z,16.63
2022-12-09T02:38:24.814Z,15.90
2022-12-09T02:42:33.118Z,16.05
2022-12-09T02:46:40.068Z,14.25
2022-12-09T02:50:50.679Z,15.48
2022-12-09T02:54:54.786Z,17.48
2022-12-09T02:58:58.158Z,17.77
2022-12-09T03:03:05.405Z,19.40
2022-12-09T03:07:21.298Z,20.15
2022-12-09T03:11:25.869Z,17.90
2022-12-09T03:15:34.910Z,19.15
2022-12-09T03:19:43.210Z,17.63
2022-12-09T03:23:47.845Z,16.13
2022-12-09T03:27:54.761Z,16.83
2022-12-09T03:31:59.773Z,17.13
2022-12-09T03:36:09.077Z,18.77
2022-12-09T03:40:18.785Z,19.00
2022-12-09T03:44:28.090Z,19.45
2022-12-09T03:48:31.513Z,17.90
2022-12-09T03:52:40.911Z,19.95
2022-12-09T03:56:49.284Z,20.88
2022-12-09T04:00:52.778Z,18.77
2022-12-09T04:04:56.192Z,18.83
2022-12-09T04:09:02.349Z,18.80
2022-12-09T04:13:07.435Z,22.40
2022-12-09T04:17:12.233Z,16.48
2022-12-09T04:21:15.371Z,19.33
2022-12-09T04:25:18.340Z,18.83
2022-12-09T04:29:22.571Z,18.58
2022-12-09T04:33:26.298Z,19.88
2022-12-09T04:37:29.489Z,20.45
2022-12-09T04:41:33.008Z,18.63
2022-12-09T04:45:37.859Z,21.70
2022-12-09T04:49:40.847Z,27.70
2022-12-09T04:53:44.451Z,19.92
2022-12-09T04:57:47.488Z,24.88
2022-12-09T05:01:51.752Z,30.00
2022-12-09T05:05:55.233Z,31.67
2022-12-09T05:09:59.015Z,29.40
2022-12-09T05:14:02.415Z,24.13
2022-12-09T05:18:06.941Z,27.13
2022-12-09T05:22:10.111Z,26.67
2022-12-09T05:26:15.996Z,33.10
2022-12-09T05:30:20.215Z,29.23
2022-12-09T05:34:25.067Z,34.05
2022-12-09T05:38:28.772Z,26.10
2022-12-09T05:42:35.223Z,30.75
2022-12-09T05:46:42.796Z,37.42
2022-12-09T05:50:56.679Z,43.15
2022-12-09T05:54:59.674Z,39.97
2022-12-09T05:59:02.667Z,37.47
2022-12-09T06:03:06.166Z,42.05
2022-12-09T06:07:11.265Z,45.83
2022-12-09T06:11:16.577Z,39.50
2022-12-09T06:15:21.823Z,44.92
2022-12-09T06:19:26.309Z,52.28
2022-12-09T06:23:30.992Z,42.67
2022-12-09T06:27:34.433Z,41.20
2022-12-09T06:31:37.421Z,37.58
2022-12-09T06:35:41.020Z,40.28
2022-12-09T06:39:45.523Z,42.47
2022-12-09T06:43:48.845Z,55.10
2022-12-09T06:47:52.136Z,43.72
2022-12-09T06:51:55.223Z,51.03
2022-12-09T06:56:07.883Z,46.95
2022-12-09T07:00:15.478Z,42.70
2022-12-09T07:04:18.824Z,48.85
2022-12-09T07:08:21.935Z,45.70
2022-12-09T07:12:26.610Z,47.58
2022-12-09T07:16:30.417Z,51.03
2022-12-09T07:20:33.397Z,39.25
2022-12-09T07:24:37.721Z,42.45
2022-12-09T07:28:43.582Z,36.35
2022-12-09T07:32:46.576Z,39.17
2022-12-09T07:36:49.635Z,44.17
2022-12-09T07:40:52.864Z,37.78
2022-12-09T07:44:57.226Z,35.65
2022-12-09T07:49:00.342Z,33.97
2022-12-09T07:53:03.779Z,40.75
2022-12-09T07:57:06.818Z,46.03
2022-12-09T08:01:13.453Z,45.70
2022-12-09T08:05:17.024Z,48.05
2022-12-09T08:09:20.993Z,45.47
2022-12-09T08:13:24.343Z,42.78
2022-12-09T08:17:30.354Z,39.88
2022-12-09T08:21:34.457Z,44.15
2022-12-09T08:25:37.470Z,42.30
2022-12-09T08:29:41.024Z,43.42
2022-12-09T08:33:45.709Z,40.42
2022-12-09T08:37:49.110Z,39.70
2022-12-09T08:41:52.386Z,38.17
2022-12-09T08:45:55.391Z,39.35
2022-12-09T08:50:00.072Z,36.38
2022-12-09T08:54:03.603Z,38.28
2022-12-09T08:58:06.554Z,35.72
2022-12-09T09:02:09.464Z,40.05
2022-12-09T09:06:15.388Z,33.40
2022-12-09T09:10:19.192Z,35.13
2022-12-09T09:14:22.839Z,30.35
2022-12-09T09:18:26.042Z,34.33
2022-12-09T09:22:30.608Z,31.70
2022-12-09T09:26:33.748Z,33.63
2022-12-09T09:30:38.058Z,35.55
2022-12-09T09:34:41.791Z,31.58
2022-12-09T09:38:46.507Z,28.00
2022-12-09T09:42:52.328Z,24.88
2022-12-09T09:46:57.524Z,25.08
2022-12-09T09:51:04.524Z,25.40
2022-12-09T09:55:16.095Z,22.73
2022-12-09T09:59:27.957Z,25.40
2022-12-09T10:03:40.780Z,24.23
2022-12-09T10:07:46.039Z,27.42
2022-12-09T10:11:59.512Z,30.02
2022-12-09T10:16:13.237Z,26.27
2022-12-09T10:20:20.693Z,28.48
2022-12-09T10:24:30.884Z,28.52
2022-12-09T10:28:43.767Z,24.65
2022-12-09T10:32:47.495Z,30.65
2022-12-09T10:36:50.741Z,30.80
2022-12-09T10:41:03.732Z,29.50
2022-12-09T10:45:10.110Z,31.42
2022-12-09T10:49:21.001Z,32.10
2022-12-09T10:53:25.292Z,28.85
2022-12-09T10:57:29.940Z,23.63
2022-12-09T11:01:50.580Z,26.70
2022-12-09T11:06:03.156Z,26.15
2022-12-09T11:10:18.466Z,24.80
2022-12-09T11:14:24.916Z,28.95
2022-12-09T11:18:32.909Z,29.52
2022-12-09T11:22:39.524Z,32.90
2022-12-09T11:26:43.252Z,27.83
2022-12-09T11:31:27.218Z,28.10
2022-12-09T11:35:21.478Z,23.20
2022-12-09T11:39:28.159Z,27.92
2022-12-09T11:43:34.557Z,27.40
2022-12-09T11:48:20.274Z,24.40
2022-12-09T11:52:08.039Z,27.67
2022-12-09T11:56:17.833Z,21.02
2022-12-09T12:00:24.303Z,24.55
2022-12-09T12:04:44.109Z,23.73
2022-12-09T12:08:52.349Z,25.40
2022-12-09T12:13:03.382Z,24.83
2022-12-09T12:17:13.445Z,21.33
2022-12-09T12:21:42.469Z,30.42
2022-12-09T12:25:55.358Z,28.73
2022-12-09T12:30:02.074Z,27.77
2022-12-09T12:34:24.587Z,25.25
2022-12-09T12:38:42.257Z,24.95
2022-12-09T12:43:14.926Z,27.08
2022-12-09T12:47:23.943Z,26.15
2022-12-09T12:51:34.849Z,24.65
2022-12-09T12:55:47.554Z,26.27
2022-12-09T13:00:02.509Z,25.90
2022-12-09T13:04:18.489Z,26.30
2022-12-09T13:08:27.119Z,26.55
2022-12-09T13:12:50.793Z,25.63
2022-12-09T13:16:55.279Z,28.30
2022-12-09T13:21:00.081Z,28.23
2022-12-09T13:25:15.064Z,24.48
2022-12-09T13:29:33.128Z,23.98
2022-12-09T13:33:54.823Z,25.75
2022-12-09T13:38:00.005Z,24.92
2022-12-09T13:42:20.692Z,25.05
2022-12-09T13:46:25.172Z,27.90
2022-12-09T13:50:35.574Z,28.98
2022-12-09T13:54:47.968Z,27.63
2022-12-09T13:59:28.943Z,26.13
2022-12-09T14:03:34.803Z,28.63
2022-12-09T14:07:43.557Z,28.13
2022-12-09T14:11:48.844Z,26.63
2022-12-09T14:16:11.397Z,27.60
2022-12-09T14:20:21.202Z,27.77
2022-12-09T14:24:35.388Z,29.67
2022-12-09T14:29:00.894Z,27.70
2022-12-09T14:33:03.986Z,27.17
2022-12-09T14:37:53.956Z,27.67
2022-12-09T14:42:03.554Z,26.50
2022-12-09T14:46:18.388Z,28.27
2022-12-09T14:50:24.099Z,31.67
2022-12-09T14:54:31.785Z,31.40
2022-12-09T14:58:36.136Z,30.85
2022-12-09T15:02:39.048Z,27.23
2022-12-09T15:06:42.605Z,27.27
2022-12-09T15:10:45.547Z,25.92
2022-12-09T15:14:55.023Z,29.98
2022-12-09T15:18:57.967Z,31.85
2022-12-09T15:23:03.654Z,33.00
2022-12-09T15:27:06.583Z,36.38
2022-12-09T15:31:18.441Z,33.40
2022-12-09T15:35:24.403Z,31.38
2022-12-09T15:39:30.907Z,33.20
2022-12-09T15:43:35.590Z,30.40
2022-12-09T15:47:43.032Z,33.28
2022-12-09T15:51:47.358Z,30.42
2022-12-09T15:55:53.828Z,29.33
2022-12-09T15:59:59.070Z,29.55
2022-12-09T16:04:04.641Z,26.65
2022-12-09T16:08:07.655Z,25.45
2022-12-09T16:12:26.780Z,27.48
2022-12-09T16:16:36.674Z,25.85
2022-12-09T16:20:45.508Z,22.90
2022-12-09T16:25:13.557Z,18.33
2022-12-09T16:29:26.516Z,21.30
2022-12-09T16:33:35.049Z,22.98
2022-12-09T16:37:41.683Z,23.20
2022-12-09T16:41:58.580Z,21.67
2022-12-09T16:46:02.844Z,20.27
2022-12-09T16:50:06.763Z,21.60
2022-12-09T16:54:20.907Z,22.90
2022-12-09T16:58:24.461Z,22.42
2022-12-09T17:02:33.207Z,24.38
2022-12-09T17:06:36.163Z,21.05
2022-12-09T17:10:42.056Z,23.80
2022-12-09T17:14:44.964Z,21.83
2022-12-09T17:18:49.255Z,21.58
2022-12-09T17:22:52.162Z,33.90
2022-12-09T17:26:56.588Z,22.35
2022-12-09T17:31:00.232Z,20.63
2022-12-09T17:35:07.479Z,18.63
2022-12-09T17:39:16.058Z,17.00
2022-12-09T17:43:20.283Z,17.10
2022-12-09T17:47:23.367Z,16.92
2022-12-09T17:51:29.693Z,20.80
2022-12-09T17:55:35.377Z,18.30
2022-12-09T17:59:41.193Z,16.15
2022-12-09T18:04:15.996Z,17.58
2022-12-09T18:08:19.026Z,20.90
2022-12-09T18:12:21.992Z,19.73
2022-12-09T18:16:26.389Z,20.90
2022-12-09T18:20:29.314Z,21.60
2022-12-09T18:24:33.742Z,23.98
2022-12-09T18:28:36.865Z,23.08
2022-12-09T18:32:41.083Z,22.80
2022-12-09T18:36:43.993Z,22.08
2022-12-09T18:45:15.607Z,21.27
2022-12-09T18:49:20.314Z,21.42
2022-12-09T18:53:23.404Z,21.80
2022-12-09T18:57:30.521Z,20.02
2022-12-09T19:01:38.902Z,22.58
2022-12-09T19:05:43.348Z,21.92
2022-12-09T19:09:46.324Z,24.58
2022-12-09T19:13:49.267Z,23.67
2022-12-09T19:17:53.504Z,23.08
2022-12-09T19:21:56.727Z,22.05
2022-12-09T19:25:59.789Z,23.23
2022-12-09T19:30:02.921Z,24.85
2022-12-09T19:34:09.361Z,21.83
2022-12-09T19:38:12.291Z,23.15
2022-12-09T19:42:15.111Z,24.13
2022-12-09T19:46:18.299Z,23.55
2022-12-09T19:50:23.148Z,24.67
2022-12-09T19:54:28.744Z,25.58
2022-12-09T19:58:32.426Z,29.73
2022-12-09T20:02:36.332Z,25.17
2022-12-09T20:06:40.546Z,25.30
2022-12-09T20:10:45.447Z,27.00
2022-12-09T20:14:48.327Z,28.42
2022-12-09T20:18:51.570Z,26.50
2022-12-09T20:22:55.826Z,26.17
2022-12-09T20:26:58.678Z,29.25
2022-12-09T20:31:05.499Z,28.30
2022-12-09T20:35:09.327Z,29.48
2022-12-09T20:39:15.553Z,27.85
2022-12-09T20:43:18.360Z,27.92
2022-12-09T20:47:21.520Z,29.00
2022-12-09T20:51:27.540Z,28.92
2022-12-09T20:55:31.709Z,27.15
2022-12-09T20:59:34.780Z,27.77
2022-12-09T21:03:37.730Z,29.45
2022-12-09T21:07:40.703Z,32.28
2022-12-09T21:11:45.344Z,29.02
2022-12-09T21:15:48.168Z,27.77
2022-12-09T21:19:50.976Z,29.30
2022-12-09T21:23:54.566Z,27.05
2022-12-09T21:27:58.955Z,27.27
2022-12-09T21:32:02.192Z,30.25
2022-12-09T21:36:07.208Z,29.35
2022-12-09T21:40:11.281Z,33.67
2022-12-09T21:44:19.883Z,66.40
2022-12-09T21:48:22.762Z,40.38
2022-12-09T21:52:25.589Z,40.45
2022-12-09T21:56:31.226Z,41.10
2022-12-09T22:00:35.409Z,42.10
2022-12-09T22:04:38.268Z,40.40
2022-12-09T22:08:42.488Z,39.10
2022-12-09T22:12:45.396Z,38.83
2022-12-09T22:16:49.604Z,38.08
2022-12-09T22:21:23.509Z,36.08
2022-12-09T22:25:15.372Z,39.72
2022-12-09T22:29:18.749Z,34.08
2022-12-09T22:33:22.929Z,37.33
2022-12-09T22:37:44.491Z,36.20
2022-12-09T22:41:47.539Z,34.35
2022-12-09T22:45:50.412Z,35.58
2022-12-09T22:49:54.596Z,36.75
2022-12-09T22:53:59.258Z,35.67
2022-12-09T22:58:02.170Z,35.33
2022-12-09T23:02:05.131Z,33.67
2022-12-09T23:06:10.638Z,31.88
2022-12-09T23:10:13.446Z,34.00
2022-12-09T23:14:16.698Z,32.53
2022-12-09T23:18:19.526Z,35.92
2022-12-09T23:22:23.961Z,32.50
2022-12-09T23:26:29.497Z,32.95
2022-12-09T23:30:32.332Z,30.30
2022-12-09T23:34:35.227Z,32.75
2022-12-09T23:38:39.540Z,31.95
2022-12-09T23:42:42.349Z,37.33
2022-12-09T23:46:45.838Z,35.38
2022-12-09T23:50:48.716Z,33.10
2022-12-09T23:54:57.445Z,35.03
2022-12-09T23:59:06.584Z,34.42
